Impacts TAF Board
For situational awareness. Not to be used for flight planning purposes.
IDs:

KIPT - Williamsport Rgnl, PA, US

Issued at 1558 UTC 03 Dec 2021
Updated at 1632 UTC 03 Dec 2021
Potential Impact None Slight Moderate High
Time1554Z 03/17Z 03/18Z 03/19Z 03/20Z 03/21Z 03/22Z 03/23Z 04/00Z 04/01Z 04/02Z 04/03Z 04/04Z 04/05Z>>
Type OBS PRVL PRVL PRVL PRVL PRVL PRVL PRVL PRVL PRVL PRVL PRVL PRVL PRVL
VIS 10 >6 >6 >6 >6 >6 >6 >6 >6 >6 >6 >6 >6 >6
CIG 43 45 45 45 45 45 40 40 50 50 50 50 50 50
Cover BKN BKN BKN BKN BKN BKN BKN BKN BKN BKN BKN BKN BKN BKN
FltCat VFR VFR VFR VFR VFR VFR VFR VFR VFR VFR VFR VFR VFR VFR
WX -- -- -- -- -- -- -- -- -- -- -- -- -- --
WDir 300 300 300 300 300 300 290 290 VRB VRB VRB VRB VRB VRB
WSpd 12 9 9 9 9 9 8 8 2 2 2 2 2 2
WGst 18 16 16 16 16 16 -- -- -- -- -- -- -- --
WSHgt -- -- -- -- -- -- -- -- -- -- -- -- -- --
WSDir -- -- -- -- -- -- -- -- -- -- -- -- -- --
WSSpd -- -- -- -- -- -- -- -- -- -- -- -- -- --
Raw TAF
KIPT 031558Z 0316/0412 30009G16KT P6SM BKN045 BKN250
  FM032200 29008KT P6SM BKN040 BKN100
  FM040000 VRB02KT P6SM BKN050 BKN080


Raw METAR
KIPT 031554Z 30012G18KT 10SM BKN043 06/M04 A3002 RMK AO2 SLP167 T00611039
KIPT 031454Z 31009KT 10SM BKN043 06/M03 A3000 RMK AO2 SLP163 T00611033 51020
KIPT 031354Z 28012G17KT 10SM SCT044 06/M04 A2998 RMK AO2 SLP156 T00561044

METAR Board
Radar Display
Forecast Discussion
For situational awareness. Not to be used for flight planning purposes.